NWI584 BIKF-BIHU
Flight info
| Callsign | NWI584 |
|---|---|
| Flight time | 0h 48m |
| Altitude | 23000 |
| Route | LUTER2A LUTER DCT NB DCT GUGSI |
| Aircraft | DH8A/M-SDFGR/S |
Departure
| Time | 2026-05-04 00:32 |
|---|---|
| Airport | Keflavik International Airport (BIKF) |
Arrival
| Time | 2026-05-04 01:20 |
|---|---|
| Airport | Húsavík Airport (BIHU) |
| Time | Latitude | Longitude | Altitude | Speed | Heading |
|---|---|---|---|---|---|
| 2026-05-04 00:10 | 63.97351 | -22.59135 | 173 ft | 0 kts | 114° |
| 2026-05-04 00:18 | 63.97351 | -22.59134 | 173 ft | 0 kts | 114° |
| 2026-05-04 00:19 | 63.97349 | -22.59129 | 173 ft | 0 kts | 113° |
| 2026-05-04 00:19 | 63.97355 | -22.59157 | 173 ft | 2 kts | 114° |
| 2026-05-04 00:20 | 63.97361 | -22.59188 | 173 ft | 2 kts | 114° |
| 2026-05-04 00:20 | 63.97367 | -22.59219 | 173 ft | 2 kts | 115° |
| 2026-05-04 00:20 | 63.97377 | -22.59245 | 173 ft | 2 kts | 144° |
| 2026-05-04 00:20 | 63.97390 | -22.59258 | 173 ft | 2 kts | 171° |
| 2026-05-04 00:21 | 63.97404 | -22.59255 | 174 ft | 1 kts | 198° |
| 2026-05-04 00:21 | 63.97409 | -22.59252 | 174 ft | 0 kts | 202° |
| 2026-05-04 00:21 | 63.97408 | -22.59252 | 174 ft | 0 kts | 202° |
| 2026-05-04 00:24 | 63.97384 | -22.59276 | 173 ft | 7 kts | 203° |
| 2026-05-04 00:24 | 63.97336 | -22.59320 | 172 ft | 10 kts | 199° |
| 2026-05-04 00:25 | 63.97255 | -22.59389 | 169 ft | 9 kts | 200° |
| 2026-05-04 00:25 | 63.97221 | -22.59468 | 168 ft | 8 kts | 267° |
| 2026-05-04 00:25 | 63.97250 | -22.59643 | 167 ft | 14 kts | 291° |
| 2026-05-04 00:25 | 63.97295 | -22.59892 | 165 ft | 19 kts | 291° |
| 2026-05-04 00:26 | 63.97336 | -22.60121 | 164 ft | 8 kts | 292° |
| 2026-05-04 00:26 | 63.97356 | -22.60224 | 164 ft | 10 kts | 293° |
| 2026-05-04 00:26 | 63.97390 | -22.60412 | 163 ft | 15 kts | 290° |
| 2026-05-04 00:26 | 63.97428 | -22.60657 | 162 ft | 14 kts | 285° |
| 2026-05-04 00:27 | 63.97442 | -22.60799 | 160 ft | 9 kts | 285° |
| 2026-05-04 00:27 | 63.97427 | -22.60941 | 158 ft | 9 kts | 203° |
| 2026-05-04 00:27 | 63.97332 | -22.60951 | 157 ft | 17 kts | 179° |
| 2026-05-04 00:27 | 63.97189 | -22.60951 | 153 ft | 23 kts | 176° |
| 2026-05-04 00:28 | 63.97014 | -22.60949 | 149 ft | 23 kts | 179° |
| 2026-05-04 00:28 | 63.96843 | -22.60951 | 144 ft | 27 kts | 179° |
| 2026-05-04 00:28 | 63.96664 | -22.60949 | 139 ft | 20 kts | 179° |
| 2026-05-04 00:28 | 63.96577 | -22.60948 | 137 ft | 8 kts | 179° |
| 2026-05-04 00:29 | 63.96517 | -22.60950 | 136 ft | 10 kts | 177° |
| 2026-05-04 00:29 | 63.96466 | -22.60897 | 136 ft | 8 kts | 118° |
| 2026-05-04 00:29 | 63.96461 | -22.60814 | 136 ft | 0 kts | 90° |
| 2026-05-04 00:30 | 63.96461 | -22.60778 | 137 ft | 5 kts | 90° |
| 2026-05-04 00:30 | 63.96461 | -22.60660 | 138 ft | 8 kts | 89° |
| 2026-05-04 00:30 | 63.96469 | -22.60554 | 138 ft | 6 kts | 26° |
| 2026-05-04 00:31 | 63.96485 | -22.60550 | 139 ft | 3 kts | 2° |
| 2026-05-04 00:31 | 63.96703 | -22.60544 | 144 ft | 67 kts | 360° |
| 2026-05-04 00:31 | 63.97360 | -22.60531 | 239 ft | 111 kts | 2° |
| 2026-05-04 00:31 | 63.98167 | -22.60455 | 677 ft | 122 kts | 2° |
| 2026-05-04 00:32 | 63.99049 | -22.60365 | 1193 ft | 133 kts | 0° |
| 2026-05-04 00:32 | 63.99951 | -22.60429 | 1821 ft | 136 kts | 355° |
| 2026-05-04 00:32 | 64.00945 | -22.60499 | 2274 ft | 149 kts | 358° |
| 2026-05-04 00:32 | 64.01994 | -22.60533 | 2718 ft | 157 kts | 358° |
| 2026-05-04 00:33 | 64.03115 | -22.60397 | 3087 ft | 167 kts | 3° |
| 2026-05-04 00:33 | 64.05469 | -22.60050 | 3968 ft | 174 kts | 12° |
| 2026-05-04 00:33 | 64.06473 | -22.58388 | 4301 ft | 190 kts | 49° |
| 2026-05-04 00:34 | 64.06902 | -22.55602 | 4862 ft | 193 kts | 84° |
| 2026-05-04 00:34 | 64.06657 | -22.52569 | 5302 ft | 200 kts | 103° |
| 2026-05-04 00:34 | 64.06118 | -22.49558 | 5639 ft | 209 kts | 112° |
| 2026-05-04 00:34 | 64.05644 | -22.46416 | 6052 ft | 208 kts | 97° |
| 2026-05-04 00:35 | 64.05473 | -22.43178 | 6413 ft | 210 kts | 88° |
| 2026-05-04 00:35 | 64.05482 | -22.39813 | 6814 ft | 210 kts | 80° |
| 2026-05-04 00:35 | 64.05720 | -22.36573 | 7203 ft | 209 kts | 70° |
| 2026-05-04 00:35 | 64.06046 | -22.33282 | 7538 ft | 215 kts | 73° |
| 2026-05-04 00:36 | 64.06318 | -22.29914 | 7825 ft | 223 kts | 75° |
| 2026-05-04 00:36 | 64.06596 | -22.26393 | 8086 ft | 227 kts | 69° |
| 2026-05-04 00:36 | 64.06858 | -22.22784 | 8363 ft | 235 kts | 78° |
| 2026-05-04 00:36 | 64.07029 | -22.19016 | 8627 ft | 241 kts | 79° |
| 2026-05-04 00:37 | 64.07164 | -22.15150 | 8885 ft | 245 kts | 80° |
| 2026-05-04 00:37 | 64.07290 | -22.11253 | 9178 ft | 247 kts | 80° |
| 2026-05-04 00:37 | 64.07413 | -22.07347 | 9521 ft | 247 kts | 79° |
| 2026-05-04 00:37 | 64.07536 | -22.03428 | 9873 ft | 247 kts | 79° |
| 2026-05-04 00:38 | 64.07658 | -21.99532 | 10223 ft | 248 kts | 79° |
| 2026-05-04 00:38 | 64.07780 | -21.95603 | 10567 ft | 249 kts | 79° |
| 2026-05-04 00:38 | 64.07900 | -21.91661 | 10913 ft | 250 kts | 79° |
| 2026-05-04 00:38 | 64.08021 | -21.87690 | 11254 ft | 252 kts | 79° |
| 2026-05-04 00:39 | 64.08141 | -21.83722 | 11604 ft | 254 kts | 79° |
| 2026-05-04 00:39 | 64.08260 | -21.79704 | 11963 ft | 256 kts | 78° |
| 2026-05-04 00:39 | 64.08382 | -21.75612 | 12336 ft | 258 kts | 78° |
| 2026-05-04 00:39 | 64.08498 | -21.71532 | 12700 ft | 259 kts | 78° |
| 2026-05-04 00:40 | 64.08617 | -21.67451 | 13100 ft | 260 kts | 78° |
| 2026-05-04 00:40 | 64.08735 | -21.63353 | 13475 ft | 261 kts | 78° |
| 2026-05-04 00:40 | 64.08852 | -21.59230 | 13834 ft | 263 kts | 78° |
| 2026-05-04 00:40 | 64.08968 | -21.55059 | 14223 ft | 266 kts | 78° |
| 2026-05-04 00:41 | 64.09087 | -21.50770 | 14608 ft | 268 kts | 78° |
| 2026-05-04 00:41 | 64.09199 | -21.46527 | 14990 ft | 270 kts | 78° |
| 2026-05-04 00:41 | 64.09312 | -21.42251 | 15376 ft | 271 kts | 77° |
| 2026-05-04 00:41 | 64.09427 | -21.38003 | 15734 ft | 271 kts | 77° |
| 2026-05-04 00:42 | 64.09766 | -21.33891 | 16074 ft | 252 kts | 50° |
| 2026-05-04 00:42 | 64.10709 | -21.30728 | 16471 ft | 235 kts | 36° |
| 2026-05-04 00:42 | 64.11642 | -21.28129 | 16802 ft | 231 kts | 32° |
| 2026-05-04 00:42 | 64.12700 | -21.25448 | 17172 ft | 229 kts | 30° |
| 2026-05-04 00:43 | 64.13777 | -21.22823 | 17558 ft | 226 kts | 28° |
| 2026-05-04 00:43 | 64.14876 | -21.20218 | 17872 ft | 227 kts | 27° |
| 2026-05-04 00:43 | 64.15977 | -21.17644 | 18199 ft | 227 kts | 26° |
| 2026-05-04 00:43 | 64.17077 | -21.15076 | 18499 ft | 227 kts | 26° |
| 2026-05-04 00:44 | 64.18189 | -21.12492 | 18832 ft | 227 kts | 26° |
| 2026-05-04 00:44 | 64.19291 | -21.09930 | 19149 ft | 227 kts | 25° |
| 2026-05-04 00:44 | 64.20400 | -21.07348 | 19470 ft | 227 kts | 25° |
| 2026-05-04 00:44 | 64.21500 | -21.04799 | 19779 ft | 226 kts | 25° |
| 2026-05-04 00:45 | 64.22602 | -21.02232 | 20093 ft | 225 kts | 24° |
| 2026-05-04 00:45 | 64.23697 | -20.99679 | 20419 ft | 225 kts | 24° |
| 2026-05-04 00:45 | 64.24792 | -20.97122 | 20709 ft | 225 kts | 24° |
| 2026-05-04 00:45 | 64.25886 | -20.94571 | 20997 ft | 225 kts | 24° |
| 2026-05-04 00:46 | 64.26982 | -20.92012 | 21250 ft | 226 kts | 23° |
| 2026-05-04 00:46 | 64.28091 | -20.89411 | 21491 ft | 228 kts | 23° |
| 2026-05-04 00:46 | 64.29203 | -20.86812 | 21754 ft | 229 kts | 24° |
| 2026-05-04 00:46 | 64.30306 | -20.84219 | 21981 ft | 231 kts | 23° |
| 2026-05-04 00:47 | 64.31434 | -20.81574 | 22200 ft | 233 kts | 23° |
| 2026-05-04 00:47 | 64.32568 | -20.78917 | 22391 ft | 236 kts | 23° |
| 2026-05-04 00:47 | 64.33730 | -20.76187 | 22541 ft | 242 kts | 24° |
| 2026-05-04 00:47 | 64.34923 | -20.73383 | 22690 ft | 247 kts | 24° |
| 2026-05-04 00:48 | 64.36129 | -20.70529 | 22816 ft | 252 kts | 24° |
| 2026-05-04 00:48 | 64.37379 | -20.67573 | 22922 ft | 259 kts | 25° |
| 2026-05-04 00:48 | 64.38639 | -20.64596 | 22936 ft | 267 kts | 25° |
| 2026-05-04 00:48 | 64.39957 | -20.61467 | 22943 ft | 273 kts | 25° |
| 2026-05-04 00:49 | 64.41293 | -20.58302 | 22941 ft | 280 kts | 26° |
| 2026-05-04 00:49 | 64.42645 | -20.55078 | 22949 ft | 284 kts | 26° |
| 2026-05-04 00:49 | 64.44044 | -20.51732 | 22952 ft | 288 kts | 27° |
| 2026-05-04 00:49 | 64.45433 | -20.48407 | 22950 ft | 292 kts | 27° |
| 2026-05-04 00:50 | 64.46866 | -20.44988 | 22925 ft | 296 kts | 27° |
| 2026-05-04 00:50 | 64.48289 | -20.41586 | 22942 ft | 298 kts | 27° |
| 2026-05-04 00:50 | 64.49737 | -20.38099 | 22920 ft | 302 kts | 27° |
| 2026-05-04 00:50 | 64.51184 | -20.34617 | 22912 ft | 303 kts | 28° |
| 2026-05-04 00:51 | 64.52670 | -20.31052 | 22898 ft | 305 kts | 28° |
| 2026-05-04 00:51 | 64.54017 | -20.27799 | 22882 ft | 305 kts | 28° |
| 2026-05-04 00:51 | 64.55497 | -20.24216 | 22897 ft | 306 kts | 29° |
| 2026-05-04 00:51 | 64.56926 | -20.20765 | 22881 ft | 307 kts | 28° |
| 2026-05-04 00:52 | 64.58403 | -20.17182 | 22875 ft | 308 kts | 28° |
| 2026-05-04 00:52 | 64.59885 | -20.13589 | 22886 ft | 308 kts | 28° |
| 2026-05-04 00:52 | 64.61363 | -20.10001 | 22858 ft | 309 kts | 28° |
| 2026-05-04 00:52 | 64.62859 | -20.06357 | 22864 ft | 309 kts | 28° |
| 2026-05-04 00:53 | 64.64337 | -20.02746 | 22855 ft | 310 kts | 28° |
| 2026-05-04 00:53 | 64.65821 | -19.99135 | 22819 ft | 311 kts | 28° |
| 2026-05-04 00:53 | 64.67310 | -19.95484 | 22819 ft | 311 kts | 29° |
| 2026-05-04 00:53 | 64.68813 | -19.91802 | 22814 ft | 312 kts | 29° |
| 2026-05-04 00:54 | 64.70301 | -19.88149 | 22807 ft | 312 kts | 28° |
| 2026-05-04 00:54 | 64.71795 | -19.84473 | 22799 ft | 313 kts | 29° |
| 2026-05-04 00:54 | 64.73283 | -19.80810 | 22787 ft | 312 kts | 28° |
| 2026-05-04 00:54 | 64.74762 | -19.77155 | 22780 ft | 312 kts | 28° |
| 2026-05-04 00:55 | 64.76268 | -19.73442 | 22791 ft | 312 kts | 29° |
| 2026-05-04 00:55 | 64.77748 | -19.69773 | 22800 ft | 312 kts | 28° |
| 2026-05-04 00:55 | 64.79228 | -19.66095 | 22821 ft | 310 kts | 28° |
| 2026-05-04 00:55 | 64.80701 | -19.62438 | 22850 ft | 309 kts | 28° |
| 2026-05-04 00:56 | 64.82165 | -19.58791 | 22868 ft | 309 kts | 28° |
| 2026-05-04 00:56 | 64.83638 | -19.55129 | 22885 ft | 309 kts | 28° |
| 2026-05-04 00:56 | 64.85109 | -19.51445 | 22906 ft | 309 kts | 28° |
| 2026-05-04 00:56 | 64.86580 | -19.47779 | 22916 ft | 309 kts | 28° |
| 2026-05-04 00:57 | 64.88046 | -19.44092 | 22910 ft | 310 kts | 27° |
| 2026-05-04 00:57 | 64.89515 | -19.40421 | 22923 ft | 310 kts | 28° |
| 2026-05-04 00:57 | 64.90990 | -19.36703 | 22909 ft | 311 kts | 28° |
| 2026-05-04 00:57 | 64.92468 | -19.32990 | 22900 ft | 311 kts | 29° |
| 2026-05-04 00:58 | 64.93818 | -19.29584 | 22905 ft | 312 kts | 29° |
| 2026-05-04 00:58 | 64.95250 | -19.25962 | 22903 ft | 312 kts | 29° |
| 2026-05-04 00:58 | 64.96733 | -19.22204 | 22886 ft | 313 kts | 29° |
| 2026-05-04 00:58 | 64.98194 | -19.18497 | 22879 ft | 312 kts | 29° |
| 2026-05-04 00:59 | 64.99681 | -19.14728 | 22903 ft | 312 kts | 29° |
| 2026-05-04 00:59 | 65.01157 | -19.10967 | 22868 ft | 313 kts | 29° |
| 2026-05-04 00:59 | 65.02632 | -19.07209 | 22893 ft | 312 kts | 30° |
| 2026-05-04 00:59 | 65.04100 | -19.03452 | 22863 ft | 312 kts | 29° |
| 2026-05-04 01:00 | 65.05566 | -18.99703 | 22869 ft | 312 kts | 29° |
| 2026-05-04 01:00 | 65.07041 | -18.95948 | 22840 ft | 314 kts | 30° |
| 2026-05-04 01:00 | 65.08518 | -18.92153 | 22792 ft | 315 kts | 29° |
| 2026-05-04 01:00 | 65.09985 | -18.88353 | 22801 ft | 313 kts | 29° |
| 2026-05-04 01:01 | 65.11468 | -18.84546 | 22834 ft | 313 kts | 29° |
| 2026-05-04 01:01 | 65.12945 | -18.80747 | 22868 ft | 313 kts | 30° |
| 2026-05-04 01:01 | 65.14412 | -18.76948 | 22807 ft | 315 kts | 30° |
| 2026-05-04 01:01 | 65.15891 | -18.73125 | 22847 ft | 314 kts | 30° |
| 2026-05-04 01:02 | 65.17371 | -18.69281 | 22826 ft | 316 kts | 30° |
| 2026-05-04 01:02 | 65.18847 | -18.65452 | 22694 ft | 319 kts | 30° |
| 2026-05-04 01:02 | 65.20358 | -18.61535 | 22534 ft | 321 kts | 31° |
| 2026-05-04 01:02 | 65.21847 | -18.57632 | 22278 ft | 313 kts | 31° |
| 2026-05-04 01:03 | 65.23280 | -18.53875 | 21978 ft | 301 kts | 31° |
| 2026-05-04 01:03 | 65.24653 | -18.50266 | 21630 ft | 292 kts | 31° |
| 2026-05-04 01:03 | 65.26025 | -18.46683 | 21240 ft | 291 kts | 32° |
| 2026-05-04 01:03 | 65.27377 | -18.43134 | 20879 ft | 291 kts | 32° |
| 2026-05-04 01:04 | 65.28740 | -18.39582 | 20495 ft | 293 kts | 33° |
| 2026-05-04 01:04 | 65.30110 | -18.35985 | 20100 ft | 294 kts | 34° |
| 2026-05-04 01:04 | 65.31490 | -18.32350 | 19674 ft | 299 kts | 36° |
| 2026-05-04 01:04 | 65.32777 | -18.28915 | 19272 ft | 306 kts | 39° |
| 2026-05-04 01:05 | 65.34265 | -18.25079 | 18771 ft | 298 kts | 28° |
| 2026-05-04 01:05 | 65.35751 | -18.21974 | 18380 ft | 297 kts | 33° |
| 2026-05-04 01:05 | 65.37264 | -18.18683 | 17922 ft | 292 kts | 34° |
| 2026-05-04 01:05 | 65.38715 | -18.15425 | 17469 ft | 287 kts | 34° |
| 2026-05-04 01:06 | 65.40157 | -18.12157 | 16950 ft | 282 kts | 35° |
| 2026-05-04 01:06 | 65.41574 | -18.08936 | 16404 ft | 277 kts | 36° |
| 2026-05-04 01:06 | 65.42945 | -18.05797 | 15865 ft | 272 kts | 37° |
| 2026-05-04 01:06 | 65.44303 | -18.02697 | 15345 ft | 268 kts | 38° |
| 2026-05-04 01:07 | 65.45640 | -17.99635 | 14797 ft | 264 kts | 39° |
| 2026-05-04 01:07 | 65.46945 | -17.96621 | 14267 ft | 260 kts | 39° |
| 2026-05-04 01:07 | 65.48227 | -17.93656 | 13739 ft | 258 kts | 39° |
| 2026-05-04 01:07 | 65.49509 | -17.90698 | 13201 ft | 256 kts | 39° |
| 2026-05-04 01:08 | 65.50791 | -17.87738 | 12676 ft | 255 kts | 39° |
| 2026-05-04 01:08 | 65.52071 | -17.84770 | 12204 ft | 255 kts | 39° |
| 2026-05-04 01:08 | 65.53330 | -17.81858 | 11732 ft | 254 kts | 40° |
| 2026-05-04 01:08 | 65.54609 | -17.78886 | 11259 ft | 253 kts | 39° |
| 2026-05-04 01:09 | 65.55859 | -17.75984 | 10774 ft | 252 kts | 40° |
| 2026-05-04 01:09 | 65.57127 | -17.73026 | 10289 ft | 251 kts | 40° |
| 2026-05-04 01:09 | 65.58364 | -17.70149 | 9807 ft | 250 kts | 40° |
| 2026-05-04 01:09 | 65.59627 | -17.67292 | 9310 ft | 247 kts | 35° |
| 2026-05-04 01:10 | 65.61139 | -17.65536 | 8813 ft | 243 kts | 18° |
| 2026-05-04 01:10 | 65.62685 | -17.63960 | 8353 ft | 241 kts | 19° |
| 2026-05-04 01:10 | 65.64217 | -17.62456 | 7949 ft | 238 kts | 20° |
| 2026-05-04 01:10 | 65.65736 | -17.60985 | 7544 ft | 234 kts | 18° |
| 2026-05-04 01:11 | 65.67313 | -17.60113 | 7118 ft | 230 kts | 3° |
| 2026-05-04 01:11 | 65.68900 | -17.59973 | 6719 ft | 228 kts | 1° |
| 2026-05-04 01:11 | 65.70483 | -17.59824 | 6320 ft | 226 kts | 1° |
| 2026-05-04 01:11 | 65.72007 | -17.59702 | 6132 ft | 219 kts | 0° |
| 2026-05-04 01:12 | 65.73534 | -17.59584 | 6007 ft | 222 kts | 1° |
| 2026-05-04 01:12 | 65.75107 | -17.59470 | 5882 ft | 225 kts | 1° |
| 2026-05-04 01:12 | 65.76672 | -17.59374 | 5755 ft | 228 kts | 1° |
| 2026-05-04 01:12 | 65.78265 | -17.59184 | 5627 ft | 229 kts | 6° |
| 2026-05-04 01:13 | 65.79838 | -17.58733 | 5497 ft | 230 kts | 5° |
| 2026-05-04 01:13 | 65.81425 | -17.58303 | 5427 ft | 228 kts | 6° |
| 2026-05-04 01:13 | 65.82999 | -17.57869 | 5425 ft | 224 kts | 6° |
| 2026-05-04 01:13 | 65.84529 | -17.57446 | 5418 ft | 222 kts | 6° |
| 2026-05-04 01:14 | 65.86071 | -17.57018 | 5174 ft | 229 kts | 6° |
| 2026-05-04 01:14 | 65.87627 | -17.56591 | 4899 ft | 215 kts | 6° |
| 2026-05-04 01:14 | 65.89054 | -17.56199 | 4605 ft | 200 kts | 5° |
| 2026-05-04 01:14 | 65.90397 | -17.55828 | 4312 ft | 188 kts | 6° |
| 2026-05-04 01:15 | 65.91650 | -17.55495 | 4023 ft | 178 kts | 5° |
| 2026-05-04 01:15 | 65.92854 | -17.55245 | 3715 ft | 168 kts | 357° |
| 2026-05-04 01:15 | 65.93957 | -17.55732 | 3428 ft | 159 kts | 350° |
| 2026-05-04 01:15 | 65.95019 | -17.56234 | 3134 ft | 152 kts | 349° |
| 2026-05-04 01:16 | 65.96029 | -17.56706 | 2913 ft | 141 kts | 355° |
| 2026-05-04 01:16 | 65.96898 | -17.56222 | 2868 ft | 121 kts | 21° |
| 2026-05-04 01:16 | 65.97670 | -17.55467 | 2612 ft | 118 kts | 20° |
| 2026-05-04 01:16 | 65.98422 | -17.54709 | 2231 ft | 118 kts | 22° |
| 2026-05-04 01:17 | 65.99152 | -17.53908 | 1982 ft | 114 kts | 21° |
| 2026-05-04 01:17 | 65.99874 | -17.52960 | 1812 ft | 117 kts | 35° |
| 2026-05-04 01:17 | 66.00426 | -17.51337 | 1604 ft | 131 kts | 57° |
| 2026-05-04 01:17 | 66.00768 | -17.49192 | 1418 ft | 136 kts | 73° |
| 2026-05-04 01:18 | 66.00799 | -17.46961 | 1407 ft | 129 kts | 91° |
| 2026-05-04 01:18 | 66.00628 | -17.44807 | 1359 ft | 126 kts | 103° |
| 2026-05-04 01:18 | 66.00186 | -17.42915 | 1201 ft | 133 kts | 126° |
| 2026-05-04 01:18 | 65.99513 | -17.41459 | 947 ft | 120 kts | 146° |
| 2026-05-04 01:19 | 65.98761 | -17.40918 | 597 ft | 112 kts | 175° |
| 2026-05-04 01:19 | 65.98013 | -17.41130 | 449 ft | 106 kts | 194° |
| 2026-05-04 01:19 | 65.97289 | -17.41581 | 333 ft | 109 kts | 193° |
| 2026-05-04 01:19 | 65.96562 | -17.41958 | 175 ft | 106 kts | 192° |
| 2026-05-04 01:20 | 65.95851 | -17.42302 | 46 ft | 104 kts | 192° |
| 2026-05-04 01:20 | 65.95211 | -17.42618 | 37 ft | 69 kts | 193° |
| 2026-05-04 01:20 | 65.94898 | -17.42780 | 39 ft | 32 kts | 191° |
| 2026-05-04 01:20 | 65.94747 | -17.42856 | 39 ft | 13 kts | 197° |
| 2026-05-04 01:21 | 65.94718 | -17.42873 | 39 ft | 4 kts | 48° |
| 2026-05-04 01:21 | 65.94756 | -17.42850 | 39 ft | 8 kts | 13° |
| 2026-05-04 01:21 | 65.94828 | -17.42809 | 39 ft | 12 kts | 10° |
| 2026-05-04 01:21 | 65.94928 | -17.42763 | 39 ft | 16 kts | 10° |
| 2026-05-04 01:22 | 65.95046 | -17.42708 | 38 ft | 18 kts | 11° |
| 2026-05-04 01:22 | 65.95175 | -17.42637 | 38 ft | 19 kts | 11° |
| 2026-05-04 01:22 | 65.95314 | -17.42570 | 37 ft | 20 kts | 10° |
| 2026-05-04 01:22 | 65.95461 | -17.42494 | 36 ft | 22 kts | 12° |
| 2026-05-04 01:23 | 65.95576 | -17.42436 | 35 ft | 9 kts | 18° |
| 2026-05-04 01:23 | 65.95606 | -17.42367 | 35 ft | 9 kts | 77° |
| 2026-05-04 01:23 | 65.95596 | -17.42187 | 34 ft | 7 kts | 103° |
| 2026-05-04 01:23 | 65.95581 | -17.42071 | 34 ft | 8 kts | 118° |
| 2026-05-04 01:24 | 65.95542 | -17.42010 | 34 ft | 4 kts | 147° |
| 2026-05-04 01:24 | 65.95545 | -17.41989 | 34 ft | 0 kts | 9° |